Luminous Kobe-2 — JJ3868 — position and weather

sailwx.info

Track history (hours):
 
Tides and Currents Weather Stations Pressure Air Temp Water Temp Dewpoint Dewpoint Depression Visibility Wind Speed Wind Dir Waves Ship Positions

Luminous Kobe-2

Last reported at 2016-Sep-28 12:31 UTC. Time now 2016-Sep-28 13:43 UTC.
Position N 34°41' E 135°11'.

Length 105 m; draft 4.5 m.

Type: Passenger vessel. MMSI: 431000469.

Date/timePositionNaut miles runAvg speedWind from/ knotsBaromVisibWave heightAir tempDewpointWater temp
2016-Sep-28 12:31N 34°41' E 135°11'5 1.2
2016-Sep-28 08:33N 34°37' E 135°07'5 1.0
2016-Sep-28 03:33N 34°37' E 135°13'4 3.4
2016-Sep-28 02:29N 34°41' E 135°11'0 0.0
2016-Sep-28 01:29N 34°41' E 135°11'0 0.0
2016-Sep-27 23:29N 34°41' E 135°11'0 0.0
2016-Sep-27 19:29N 34°41' E 135°11'0 0.0
2016-Sep-27 14:29N 34°41' E 135°11'0 0.0
2016-Sep-27 13:29N 34°41' E 135°11'6 2.0
2016-Sep-27 10:33N 34°37' E 135°06'6 0.6
2016-Sep-27 00:30N 34°41' E 135°11'0 0.0
2016-Sep-26 20:30N 34°41' E 135°11'0 0.0
2016-Sep-26 19:30N 34°41' E 135°11'0 0.0
2016-Sep-26 15:30N 34°41' E 135°11'0 0.0
2016-Sep-26 13:24N 34°41' E 135°11'6 3.4
2016-Sep-26 11:33N 34°36' E 135°07'2 0.6
2016-Sep-26 08:33N 34°37' E 135°08'5 0.8
2016-Sep-26 02:32N 34°41' E 135°11'0 0.0
2016-Sep-26 01:33N 34°41' E 135°11'0 0.0
2016-Sep-26 00:33N 34°41' E 135°11'0 0.0
2016-Sep-25 21:33N 34°41' E 135°11'0 0.0
2016-Sep-25 17:33N 34°41' E 135°11'0 0.0
2016-Sep-25 16:33N 34°41' E 135°11'0 0.0
2016-Sep-25 15:33N 34°41' E 135°11'0 0.0
2016-Sep-25 14:33N 34°41' E 135°11'0 0.0
2016-Sep-25 12:33N 34°41' E 135°11'6 6.4
2016-Sep-25 11:34N 34°36' E 135°07'1 1.0
2016-Sep-25 10:33N 34°37' E 135°07'5 5.4
2016-Sep-25 09:33N 34°41' E 135°11'4 1.8
2016-Sep-25 07:33N 34°37' E 135°13'2 0.7
2016-Sep-25 04:33N 34°39' E 135°11'2 0.5
2016-Sep-25 00:33N 34°41' E 135°11'0 0.0
2016-Sep-24 22:33N 34°41' E 135°11'0 0.0
2016-Sep-24 21:33N 34°41' E 135°11'0 0.0
2016-Sep-24 19:33N 34°41' E 135°11'0 0.0
2016-Sep-24 18:33N 34°41' E 135°11'0 0.0
2016-Sep-24 17:33N 34°41' E 135°11'0 0.0
2016-Sep-24 16:33N 34°41' E 135°11'0 0.0
2016-Sep-24 14:33N 34°41' E 135°11'0 0.0
2016-Sep-24 12:33N 34°41' E 135°11'5 2.6
2016-Sep-24 10:33N 34°37' E 135°07'5 5.1
2016-Sep-24 09:32N 34°41' E 135°11'3 0.6
2016-Sep-24 03:33N 34°38' E 135°12'3 3.4
2016-Sep-24 02:33N 34°41' E 135°11'0 0.0
2016-Sep-24 01:33N 34°41' E 135°11'0 0.0
2016-Sep-24 00:33N 34°41' E 135°11'0 0.0
2016-Sep-23 19:33N 34°41' E 135°11'0 0.0
2016-Sep-23 17:33N 34°41' E 135°11'0 0.0
2016-Sep-23 16:33N 34°41' E 135°11'0 0.0
2016-Sep-23 15:33N 34°41' E 135°11'0 0.0
2016-Sep-23 13:33N 34°41' E 135°11'0 0.0
2016-Sep-23 09:33N 34°41' E 135°11'0 0.0
2016-Sep-23 06:33N 34°41' E 135°11'2 1.1
2016-Sep-23 04:33N 34°39' E 135°11'2 2.1
2016-Sep-23 03:33N 34°37' E 135°13'4 2.8
2016-Sep-23 02:15N 34°41' E 135°11'0 0.0
2016-Sep-23 01:33N 34°41' E 135°11'0 0.0
2016-Sep-23 00:33N 34°41' E 135°11'0 0.0
2016-Sep-22 23:33N 34°41' E 135°11'0 0.0
2016-Sep-22 20:33N 34°41' E 135°11'0 0.0
2016-Sep-22 12:27N 34°41' E 135°11'2 0.3
2016-Sep-22 04:33N 34°39' E 135°11'2 1.9
2016-Sep-22 03:33N 34°38' E 135°13'4 1.2
2016-Sep-22 00:33N 34°41' E 135°11'0 0.0
2016-Sep-21 23:33N 34°41' E 135°11'0 0.0
2016-Sep-21 22:33N 34°41' E 135°11'0 0.0
2016-Sep-21 19:33N 34°41' E 135°11'0 0.0
2016-Sep-21 16:33N 34°41' E 135°11'0 0.0
2016-Sep-21 09:33N 34°41' E 135°11'5 5.2
2016-Sep-21 08:34N 34°37' E 135°07'5 1.7
2016-Sep-21 05:33N 34°41' E 135°11'4 1.8
2016-Sep-21 03:33N 34°38' E 135°13'4 3.5
2016-Sep-21 02:33N 34°41' E 135°11'0 0.0
2016-Sep-20 17:33N 34°41' E 135°11'0 0.0
2016-Sep-20 14:33N 34°41' E 135°11'0 0.0
2016-Sep-20 13:33N 34°41' E 135°11'6 2.0
2016-Sep-20 10:34N 34°37' E 135°06'6 2.8
2016-Sep-20 08:28N 34°41' E 135°11'0 0.0
2016-Sep-20 07:28N 34°41' E 135°11'0 0.0
2016-Sep-20 06:28N 34°41' E 135°11'0 0.0
2016-Sep-20 02:33N 34°41' E 135°11'0 0.0
2016-Sep-19 23:33N 34°41' E 135°11'0 0.0
2016-Sep-19 19:33N 34°41' E 135°11'0 0.0
2016-Sep-19 18:33N 34°41' E 135°11'0 0.0
2016-Sep-19 16:33N 34°41' E 135°11'0 0.0
2016-Sep-19 14:33N 34°41' E 135°11'0 0.0
2016-Sep-19 13:33N 34°41' E 135°11'0 0.0
2016-Sep-19 12:33N 34°41' E 135°11'6 6.5
2016-Sep-19 11:33N 34°36' E 135°07'6 3.2
2016-Sep-19 09:33N 34°41' E 135°11'3 1.7
2016-Sep-19 07:33N 34°38' E 135°13'3 3.5
2016-Sep-19 06:33N 34°41' E 135°11'4 1.4
2016-Sep-19 03:34N 34°37' E 135°13'4 4.1
2016-Sep-19 02:33N 34°41' E 135°11'0 0.0
2016-Sep-19 00:33N 34°41' E 135°11'0 0.0
2016-Sep-18 19:33N 34°41' E 135°11'0 0.0
2016-Sep-18 15:33N 34°41' E 135°11'0 0.0
2016-Sep-18 14:33N 34°41' E 135°11'  
Track history (hours):
 
Tides and Currents Weather Stations Pressure Air Temp Water Temp Dewpoint Dewpoint Depression Visibility Wind Speed Wind Dir Waves Ship Positions

Luminous Kobe-2

Last reported at 2016-Sep-28 12:31 UTC. Time now 2016-Sep-28 13:43 UTC.
Position N 34°41' E 135°11'.

Length 105 m; draft 4.5 m.

Type: Passenger vessel. MMSI: 431000469.

Date/timePositionNaut miles runAvg speedWind from/ knotsBaromVisibWave heightAir tempDewpointWater temp
2016-Sep-28 12:31N 34°41' E 135°11'5 1.2
2016-Sep-28 08:33N 34°37' E 135°07'5 1.0
2016-Sep-28 03:33N 34°37' E 135°13'4 3.4
2016-Sep-28 02:29N 34°41' E 135°11'0 0.0
2016-Sep-28 01:29N 34°41' E 135°11'0 0.0
2016-Sep-27 23:29N 34°41' E 135°11'0 0.0
2016-Sep-27 19:29N 34°41' E 135°11'0 0.0
2016-Sep-27 14:29N 34°41' E 135°11'0 0.0
2016-Sep-27 13:29N 34°41' E 135°11'6 2.0
2016-Sep-27 10:33N 34°37' E 135°06'6 0.6
2016-Sep-27 00:30N 34°41' E 135°11'0 0.0
2016-Sep-26 20:30N 34°41' E 135°11'0 0.0
2016-Sep-26 19:30N 34°41' E 135°11'0 0.0
2016-Sep-26 15:30N 34°41' E 135°11'0 0.0
2016-Sep-26 13:24N 34°41' E 135°11'6 3.4
2016-Sep-26 11:33N 34°36' E 135°07'2 0.6
2016-Sep-26 08:33N 34°37' E 135°08'5 0.8
2016-Sep-26 02:32N 34°41' E 135°11'0 0.0
2016-Sep-26 01:33N 34°41' E 135°11'0 0.0
2016-Sep-26 00:33N 34°41' E 135°11'0 0.0
2016-Sep-25 21:33N 34°41' E 135°11'0 0.0
2016-Sep-25 17:33N 34°41' E 135°11'0 0.0
2016-Sep-25 16:33N 34°41' E 135°11'0 0.0
2016-Sep-25 15:33N 34°41' E 135°11'0 0.0
2016-Sep-25 14:33N 34°41' E 135°11'0 0.0
2016-Sep-25 12:33N 34°41' E 135°11'6 6.4
2016-Sep-25 11:34N 34°36' E 135°07'1 1.0
2016-Sep-25 10:33N 34°37' E 135°07'5 5.4
2016-Sep-25 09:33N 34°41' E 135°11'4 1.8
2016-Sep-25 07:33N 34°37' E 135°13'2 0.7
2016-Sep-25 04:33N 34°39' E 135°11'2 0.5
2016-Sep-25 00:33N 34°41' E 135°11'0 0.0
2016-Sep-24 22:33N 34°41' E 135°11'0 0.0
2016-Sep-24 21:33N 34°41' E 135°11'0 0.0
2016-Sep-24 19:33N 34°41' E 135°11'0 0.0
2016-Sep-24 18:33N 34°41' E 135°11'0 0.0
2016-Sep-24 17:33N 34°41' E 135°11'0 0.0
2016-Sep-24 16:33N 34°41' E 135°11'0 0.0
2016-Sep-24 14:33N 34°41' E 135°11'0 0.0
2016-Sep-24 12:33N 34°41' E 135°11'5 2.6
2016-Sep-24 10:33N 34°37' E 135°07'5 5.1
2016-Sep-24 09:32N 34°41' E 135°11'3 0.6
2016-Sep-24 03:33N 34°38' E 135°12'3 3.4
2016-Sep-24 02:33N 34°41' E 135°11'0 0.0
2016-Sep-24 01:33N 34°41' E 135°11'0 0.0
2016-Sep-24 00:33N 34°41' E 135°11'0 0.0
2016-Sep-23 19:33N 34°41' E 135°11'0 0.0
2016-Sep-23 17:33N 34°41' E 135°11'0 0.0
2016-Sep-23 16:33N 34°41' E 135°11'0 0.0
2016-Sep-23 15:33N 34°41' E 135°11'0 0.0
2016-Sep-23 13:33N 34°41' E 135°11'0 0.0
2016-Sep-23 09:33N 34°41' E 135°11'0 0.0
2016-Sep-23 06:33N 34°41' E 135°11'2 1.1
2016-Sep-23 04:33N 34°39' E 135°11'2 2.1
2016-Sep-23 03:33N 34°37' E 135°13'4 2.8
2016-Sep-23 02:15N 34°41' E 135°11'0 0.0
2016-Sep-23 01:33N 34°41' E 135°11'0 0.0
2016-Sep-23 00:33N 34°41' E 135°11'0 0.0
2016-Sep-22 23:33N 34°41' E 135°11'0 0.0
2016-Sep-22 20:33N 34°41' E 135°11'0 0.0
2016-Sep-22 12:27N 34°41' E 135°11'2 0.3
2016-Sep-22 04:33N 34°39' E 135°11'2 1.9
2016-Sep-22 03:33N 34°38' E 135°13'4 1.2
2016-Sep-22 00:33N 34°41' E 135°11'0 0.0
2016-Sep-21 23:33N 34°41' E 135°11'0 0.0
2016-Sep-21 22:33N 34°41' E 135°11'0 0.0
2016-Sep-21 19:33N 34°41' E 135°11'0 0.0
2016-Sep-21 16:33N 34°41' E 135°11'0 0.0
2016-Sep-21 09:33N 34°41' E 135°11'5 5.2
2016-Sep-21 08:34N 34°37' E 135°07'5 1.7
2016-Sep-21 05:33N 34°41' E 135°11'4 1.8
2016-Sep-21 03:33N 34°38' E 135°13'4 3.5
2016-Sep-21 02:33N 34°41' E 135°11'0 0.0
2016-Sep-20 17:33N 34°41' E 135°11'0 0.0
2016-Sep-20 14:33N 34°41' E 135°11'0 0.0
2016-Sep-20 13:33N 34°41' E 135°11'6 2.0
2016-Sep-20 10:34N 34°37' E 135°06'6 2.8
2016-Sep-20 08:28N 34°41' E 135°11'0 0.0
2016-Sep-20 07:28N 34°41' E 135°11'0 0.0
2016-Sep-20 06:28N 34°41' E 135°11'0 0.0
2016-Sep-20 02:33N 34°41' E 135°11'0 0.0
2016-Sep-19 23:33N 34°41' E 135°11'0 0.0
2016-Sep-19 19:33N 34°41' E 135°11'0 0.0
2016-Sep-19 18:33N 34°41' E 135°11'0 0.0
2016-Sep-19 16:33N 34°41' E 135°11'0 0.0
2016-Sep-19 14:33N 34°41' E 135°11'0 0.0
2016-Sep-19 13:33N 34°41' E 135°11'0 0.0
2016-Sep-19 12:33N 34°41' E 135°11'6 6.5
2016-Sep-19 11:33N 34°36' E 135°07'6 3.2
2016-Sep-19 09:33N 34°41' E 135°11'3 1.7
2016-Sep-19 07:33N 34°38' E 135°13'3 3.5
2016-Sep-19 06:33N 34°41' E 135°11'4 1.4
2016-Sep-19 03:34N 34°37' E 135°13'4 4.1
2016-Sep-19 02:33N 34°41' E 135°11'0 0.0
2016-Sep-19 00:33N 34°41' E 135°11'0 0.0
2016-Sep-18 19:33N 34°41' E 135°11'0 0.0
2016-Sep-18 15:33N 34°41' E 135°11'0 0.0
2016-Sep-18 14:33N 34°41' E 135°11'  

Dump ship's entire track history